sensor_id;sensor_type;location;lat;lon;timestamp;temperature;humidity
28947;DHT22;16052;50.930;5.326;2023-07-20T00:00:30;18.70;99.90
28947;DHT22;16052;50.930;5.326;2023-07-20T00:03:13;18.60;99.90
28947;DHT22;16052;50.930;5.326;2023-07-20T00:05:43;18.60;99.90
28947;DHT22;16052;50.930;5.326;2023-07-20T00:08:09;18.50;99.90
28947;DHT22;16052;50.930;5.326;2023-07-20T00:10:35;18.60;99.90
28947;DHT22;16052;50.930;5.326;2023-07-20T00:13:00;18.50;99.90
28947;DHT22;16052;50.930;5.326;2023-07-20T00:15:26;18.60;99.90
28947;DHT22;16052;50.930;5.326;2023-07-20T00:17:52;18.50;99.90
28947;DHT22;16052;50.930;5.326;2023-07-20T00:20:17;18.50;99.90
28947;DHT22;16052;50.930;5.326;2023-07-20T00:22:43;18.50;99.90
28947;DHT22;16052;50.930;5.326;2023-07-20T00:25:09;18.30;99.90
28947;DHT22;16052;50.930;5.326;2023-07-20T00:27:37;18.30;99.90
28947;DHT22;16052;50.930;5.326;2023-07-20T00:30:04;18.30;99.90
28947;DHT22;16052;50.930;5.326;2023-07-20T00:32:31;18.30;99.90
28947;DHT22;16052;50.930;5.326;2023-07-20T00:34:57;18.40;99.90
28947;DHT22;16052;50.930;5.326;2023-07-20T00:37:23;18.40;99.90
28947;DHT22;16052;50.930;5.326;2023-07-20T00:39:48;18.30;99.90
28947;DHT22;16052;50.930;5.326;2023-07-20T00:42:14;18.20;99.90
28947;DHT22;16052;50.930;5.326;2023-07-20T00:44:39;18.30;99.90
28947;DHT22;16052;50.930;5.326;2023-07-20T00:47:06;18.20;99.90
28947;DHT22;16052;50.930;5.326;2023-07-20T00:49:32;18.20;99.90
28947;DHT22;16052;50.930;5.326;2023-07-20T00:52:00;18.10;99.90
28947;DHT22;16052;50.930;5.326;2023-07-20T00:54:27;18.10;99.90
28947;DHT22;16052;50.930;5.326;2023-07-20T00:56:53;18.10;99.90
28947;DHT22;16052;50.930;5.326;2023-07-20T00:59:20;18.00;99.90
28947;DHT22;16052;50.930;5.326;2023-07-20T01:01:46;18.00;99.90
28947;DHT22;16052;50.930;5.326;2023-07-20T01:04:12;17.90;99.90
28947;DHT22;16052;50.930;5.326;2023-07-20T01:09:13;18.00;99.90
28947;DHT22;16052;50.930;5.326;2023-07-20T01:11:53;18.00;99.90
28947;DHT22;16052;50.930;5.326;2023-07-20T01:14:20;18.00;99.90
28947;DHT22;16052;50.930;5.326;2023-07-20T01:16:45;17.90;99.90
28947;DHT22;16052;50.930;5.326;2023-07-20T01:19:13;18.00;99.90
28947;DHT22;16052;50.930;5.326;2023-07-20T01:24:17;17.80;99.90
28947;DHT22;16052;50.930;5.326;2023-07-20T01:32:01;17.80;99.90
28947;DHT22;16052;50.930;5.326;2023-07-20T01:34:29;17.70;99.90
28947;DHT22;16052;50.930;5.326;2023-07-20T01:36:55;17.70;99.90
28947;DHT22;16052;50.930;5.326;2023-07-20T01:39:21;17.60;99.90
28947;DHT22;16052;50.930;5.326;2023-07-20T01:41:47;17.60;99.90
28947;DHT22;16052;50.930;5.326;2023-07-20T01:44:13;17.60;99.90
28947;DHT22;16052;50.930;5.326;2023-07-20T01:46:39;17.60;99.90
28947;DHT22;16052;50.930;5.326;2023-07-20T01:49:04;17.60;99.90
28947;DHT22;16052;50.930;5.326;2023-07-20T01:51:30;17.60;99.90
28947;DHT22;16052;50.930;5.326;2023-07-20T01:53:55;17.60;99.90
28947;DHT22;16052;50.930;5.326;2023-07-20T01:56:21;17.50;99.90
28947;DHT22;16052;50.930;5.326;2023-07-20T01:58:47;17.50;99.90
28947;DHT22;16052;50.930;5.326;2023-07-20T02:01:12;17.50;99.90
28947;DHT22;16052;50.930;5.326;2023-07-20T02:03:38;17.50;99.90
28947;DHT22;16052;50.930;5.326;2023-07-20T02:06:04;17.40;99.90
28947;DHT22;16052;50.930;5.326;2023-07-20T02:08:29;17.40;99.90
28947;DHT22;16052;50.930;5.326;2023-07-20T02:10:56;17.30;99.90
28947;DHT22;16052;50.930;5.326;2023-07-20T02:13:22;17.30;99.90
28947;DHT22;16052;50.930;5.326;2023-07-20T02:15:48;17.40;99.90
28947;DHT22;16052;50.930;5.326;2023-07-20T02:18:15;17.40;99.90
28947;DHT22;16052;50.930;5.326;2023-07-20T02:20:41;17.50;99.90
28947;DHT22;16052;50.930;5.326;2023-07-20T02:23:10;17.50;99.90
28947;DHT22;16052;50.930;5.326;2023-07-20T02:25:36;17.50;99.90
28947;DHT22;16052;50.930;5.326;2023-07-20T02:28:04;17.50;99.90
28947;DHT22;16052;50.930;5.326;2023-07-20T02:30:29;17.50;99.90
28947;DHT22;16052;50.930;5.326;2023-07-20T02:32:55;17.40;99.90
28947;DHT22;16052;50.930;5.326;2023-07-20T02:35:24;17.40;99.90
28947;DHT22;16052;50.930;5.326;2023-07-20T02:37:49;17.50;99.90
28947;DHT22;16052;50.930;5.326;2023-07-20T02:40:15;17.50;99.90
28947;DHT22;16052;50.930;5.326;2023-07-20T02:42:41;17.40;99.90
28947;DHT22;16052;50.930;5.326;2023-07-20T02:45:07;17.30;99.90
28947;DHT22;16052;50.930;5.326;2023-07-20T02:47:32;17.30;99.90
28947;DHT22;16052;50.930;5.326;2023-07-20T02:49:59;17.20;99.90
28947;DHT22;16052;50.930;5.326;2023-07-20T02:52:25;17.20;99.90
28947;DHT22;16052;50.930;5.326;2023-07-20T02:54:50;17.30;99.90
28947;DHT22;16052;50.930;5.326;2023-07-20T02:57:16;17.30;99.90
28947;DHT22;16052;50.930;5.326;2023-07-20T02:59:42;17.30;99.90
28947;DHT22;16052;50.930;5.326;2023-07-20T03:02:07;17.30;99.90
28947;DHT22;16052;50.930;5.326;2023-07-20T03:04:35;17.30;99.90
28947;DHT22;16052;50.930;5.326;2023-07-20T03:07:04;17.30;99.90
28947;DHT22;16052;50.930;5.326;2023-07-20T03:09:29;17.20;99.90
28947;DHT22;16052;50.930;5.326;2023-07-20T03:11:55;17.20;99.90
28947;DHT22;16052;50.930;5.326;2023-07-20T03:14:21;17.20;99.90
28947;DHT22;16052;50.930;5.326;2023-07-20T03:16:46;17.20;99.90
28947;DHT22;16052;50.930;5.326;2023-07-20T03:19:12;17.10;99.90
28947;DHT22;16052;50.930;5.326;2023-07-20T03:21:37;17.20;99.90
28947;DHT22;16052;50.930;5.326;2023-07-20T03:24:07;17.20;99.90
28947;DHT22;16052;50.930;5.326;2023-07-20T03:26:34;17.20;99.90
28947;DHT22;16052;50.930;5.326;2023-07-20T03:29:00;17.20;99.90
28947;DHT22;16052;50.930;5.326;2023-07-20T03:31:26;17.20;99.90
28947;DHT22;16052;50.930;5.326;2023-07-20T03:33:52;17.30;99.90
28947;DHT22;16052;50.930;5.326;2023-07-20T03:36:17;17.30;99.90
28947;DHT22;16052;50.930;5.326;2023-07-20T03:38:43;17.20;99.90
28947;DHT22;16052;50.930;5.326;2023-07-20T03:41:09;17.20;99.90
28947;DHT22;16052;50.930;5.326;2023-07-20T03:43:35;17.20;99.90
28947;DHT22;16052;50.930;5.326;2023-07-20T03:46:00;17.30;99.90
28947;DHT22;16052;50.930;5.326;2023-07-20T03:48:26;17.30;99.90
28947;DHT22;16052;50.930;5.326;2023-07-20T03:50:54;17.30;99.90
28947;DHT22;16052;50.930;5.326;2023-07-20T03:53:20;17.40;99.90
28947;DHT22;16052;50.930;5.326;2023-07-20T03:55:47;17.50;99.90
28947;DHT22;16052;50.930;5.326;2023-07-20T03:58:13;17.50;99.90
28947;DHT22;16052;50.930;5.326;2023-07-20T04:00:39;17.50;99.90
28947;DHT22;16052;50.930;5.326;2023-07-20T04:03:05;17.40;99.90
28947;DHT22;16052;50.930;5.326;2023-07-20T04:05:31;17.30;99.90
28947;DHT22;16052;50.930;5.326;2023-07-20T04:07:56;17.30;99.90
28947;DHT22;16052;50.930;5.326;2023-07-20T04:10:22;17.30;99.90
28947;DHT22;16052;50.930;5.326;2023-07-20T04:12:49;17.30;99.90
28947;DHT22;16052;50.930;5.326;2023-07-20T04:15:14;17.40;99.90
28947;DHT22;16052;50.930;5.326;2023-07-20T04:17:40;17.50;99.90
28947;DHT22;16052;50.930;5.326;2023-07-20T04:20:07;17.50;99.90
28947;DHT22;16052;50.930;5.326;2023-07-20T04:22:33;17.50;99.90
28947;DHT22;16052;50.930;5.326;2023-07-20T04:24:58;17.50;99.90
28947;DHT22;16052;50.930;5.326;2023-07-20T04:27:24;17.50;99.90
28947;DHT22;16052;50.930;5.326;2023-07-20T04:29:50;17.50;99.90
28947;DHT22;16052;50.930;5.326;2023-07-20T04:32:15;17.40;99.90
28947;DHT22;16052;50.930;5.326;2023-07-20T04:34:42;17.40;99.90
28947;DHT22;16052;50.930;5.326;2023-07-20T04:37:09;17.40;99.90
28947;DHT22;16052;50.930;5.326;2023-07-20T04:39:35;17.30;99.90
28947;DHT22;16052;50.930;5.326;2023-07-20T04:42:01;17.30;99.90
28947;DHT22;16052;50.930;5.326;2023-07-20T04:44:26;17.30;99.90
28947;DHT22;16052;50.930;5.326;2023-07-20T04:46:52;17.30;99.90
28947;DHT22;16052;50.930;5.326;2023-07-20T04:49:18;17.30;99.90
28947;DHT22;16052;50.930;5.326;2023-07-20T04:51:45;17.30;99.90
28947;DHT22;16052;50.930;5.326;2023-07-20T04:54:11;17.20;99.90
28947;DHT22;16052;50.930;5.326;2023-07-20T04:56:36;17.20;99.90
28947;DHT22;16052;50.930;5.326;2023-07-20T04:59:02;17.10;99.90
28947;DHT22;16052;50.930;5.326;2023-07-20T05:01:28;17.10;99.90
28947;DHT22;16052;50.930;5.326;2023-07-20T05:03:53;17.10;99.90
28947;DHT22;16052;50.930;5.326;2023-07-20T05:06:19;17.10;99.90
28947;DHT22;16052;50.930;5.326;2023-07-20T05:08:45;17.10;99.90
28947;DHT22;16052;50.930;5.326;2023-07-20T05:11:11;17.20;99.90
28947;DHT22;16052;50.930;5.326;2023-07-20T05:13:37;17.20;99.90
28947;DHT22;16052;50.930;5.326;2023-07-20T05:16:03;17.30;99.90
28947;DHT22;16052;50.930;5.326;2023-07-20T05:18:29;17.30;99.90
28947;DHT22;16052;50.930;5.326;2023-07-20T05:20:55;17.40;99.90
28947;DHT22;16052;50.930;5.326;2023-07-20T05:23:21;17.50;99.90
28947;DHT22;16052;50.930;5.326;2023-07-20T05:25:54;17.50;99.90
28947;DHT22;16052;50.930;5.326;2023-07-20T05:28:20;17.50;99.90
28947;DHT22;16052;50.930;5.326;2023-07-20T05:30:46;17.60;99.90
28947;DHT22;16052;50.930;5.326;2023-07-20T05:33:11;17.60;99.90
28947;DHT22;16052;50.930;5.326;2023-07-20T05:35:37;17.60;99.90
28947;DHT22;16052;50.930;5.326;2023-07-20T05:38:03;17.70;99.90
28947;DHT22;16052;50.930;5.326;2023-07-20T05:40:30;17.70;99.90
28947;DHT22;16052;50.930;5.326;2023-07-20T05:42:56;17.70;99.90
28947;DHT22;16052;50.930;5.326;2023-07-20T05:45:22;17.70;99.90
28947;DHT22;16052;50.930;5.326;2023-07-20T05:47:48;17.80;99.90
28947;DHT22;16052;50.930;5.326;2023-07-20T05:50:14;17.90;99.90
28947;DHT22;16052;50.930;5.326;2023-07-20T05:52:40;17.90;99.90
28947;DHT22;16052;50.930;5.326;2023-07-20T05:55:06;17.90;99.90
28947;DHT22;16052;50.930;5.326;2023-07-20T05:57:32;17.90;99.90
28947;DHT22;16052;50.930;5.326;2023-07-20T05:59:58;17.90;99.90
28947;DHT22;16052;50.930;5.326;2023-07-20T06:02:24;18.00;99.90
28947;DHT22;16052;50.930;5.326;2023-07-20T06:04:49;18.00;99.90
28947;DHT22;16052;50.930;5.326;2023-07-20T06:07:15;18.10;99.90
28947;DHT22;16052;50.930;5.326;2023-07-20T06:09:41;18.00;99.90
28947;DHT22;16052;50.930;5.326;2023-07-20T06:12:08;18.10;99.90
28947;DHT22;16052;50.930;5.326;2023-07-20T06:14:35;18.10;99.90
28947;DHT22;16052;50.930;5.326;2023-07-20T06:17:00;18.10;99.90
28947;DHT22;16052;50.930;5.326;2023-07-20T06:19:26;18.10;99.90
28947;DHT22;16052;50.930;5.326;2023-07-20T06:21:52;18.00;99.90
28947;DHT22;16052;50.930;5.326;2023-07-20T06:24:17;18.00;99.90
28947;DHT22;16052;50.930;5.326;2023-07-20T06:26:43;18.00;99.90
28947;DHT22;16052;50.930;5.326;2023-07-20T06:29:09;18.00;99.90
28947;DHT22;16052;50.930;5.326;2023-07-20T06:31:36;18.00;99.90
28947;DHT22;16052;50.930;5.326;2023-07-20T06:34:02;18.00;99.90
28947;DHT22;16052;50.930;5.326;2023-07-20T06:36:28;18.00;99.90
28947;DHT22;16052;50.930;5.326;2023-07-20T06:38:54;18.10;99.90
28947;DHT22;16052;50.930;5.326;2023-07-20T06:41:20;18.10;99.90
28947;DHT22;16052;50.930;5.326;2023-07-20T06:43:46;18.10;99.90
28947;DHT22;16052;50.930;5.326;2023-07-20T06:46:11;18.20;99.90
28947;DHT22;16052;50.930;5.326;2023-07-20T06:48:37;18.30;99.90
28947;DHT22;16052;50.930;5.326;2023-07-20T06:51:03;18.30;99.90
28947;DHT22;16052;50.930;5.326;2023-07-20T06:53:29;18.40;99.90
28947;DHT22;16052;50.930;5.326;2023-07-20T06:55:55;18.40;99.90
28947;DHT22;16052;50.930;5.326;2023-07-20T06:58:23;18.40;99.90
28947;DHT22;16052;50.930;5.326;2023-07-20T07:00:48;18.40;99.90
28947;DHT22;16052;50.930;5.326;2023-07-20T07:03:14;18.50;99.90
28947;DHT22;16052;50.930;5.326;2023-07-20T07:05:40;18.40;99.90
28947;DHT22;16052;50.930;5.326;2023-07-20T07:08:06;18.40;99.90
28947;DHT22;16052;50.930;5.326;2023-07-20T07:10:35;18.40;99.90
28947;DHT22;16052;50.930;5.326;2023-07-20T07:13:02;18.50;99.90
28947;DHT22;16052;50.930;5.326;2023-07-20T07:15:27;18.70;99.90
28947;DHT22;16052;50.930;5.326;2023-07-20T07:17:54;18.80;99.90
28947;DHT22;16052;50.930;5.326;2023-07-20T07:20:19;18.90;99.90
28947;DHT22;16052;50.930;5.326;2023-07-20T07:22:45;18.90;99.90
28947;DHT22;16052;50.930;5.326;2023-07-20T07:25:12;18.90;99.90
28947;DHT22;16052;50.930;5.326;2023-07-20T07:27:38;19.00;98.60
28947;DHT22;16052;50.930;5.326;2023-07-20T07:30:04;19.00;97.70
28947;DHT22;16052;50.930;5.326;2023-07-20T07:32:31;18.90;98.70
28947;DHT22;16052;50.930;5.326;2023-07-20T07:34:56;18.80;99.90
28947;DHT22;16052;50.930;5.326;2023-07-20T07:37:24;18.90;98.90
28947;DHT22;16052;50.930;5.326;2023-07-20T07:39:50;18.90;98.90
28947;DHT22;16052;50.930;5.326;2023-07-20T07:42:15;18.80;99.90
28947;DHT22;16052;50.930;5.326;2023-07-20T07:44:41;18.80;99.90
28947;DHT22;16052;50.930;5.326;2023-07-20T07:47:07;18.80;99.00
28947;DHT22;16052;50.930;5.326;2023-07-20T07:49:32;18.80;98.00
28947;DHT22;16052;50.930;5.326;2023-07-20T07:51:59;18.80;98.30
28947;DHT22;16052;50.930;5.326;2023-07-20T07:54:28;18.80;98.20
28947;DHT22;16052;50.930;5.326;2023-07-20T07:56:54;18.90;98.80
28947;DHT22;16052;50.930;5.326;2023-07-20T07:59:19;19.00;96.50
28947;DHT22;16052;50.930;5.326;2023-07-20T08:01:45;19.00;96.40
28947;DHT22;16052;50.930;5.326;2023-07-20T08:04:11;19.10;97.00
28947;DHT22;16052;50.930;5.326;2023-07-20T08:06:36;19.10;97.90
28947;DHT22;16052;50.930;5.326;2023-07-20T08:09:02;19.20;99.00
28947;DHT22;16052;50.930;5.326;2023-07-20T08:11:28;19.50;92.50
28947;DHT22;16052;50.930;5.326;2023-07-20T08:13:57;19.70;87.70
28947;DHT22;16052;50.930;5.326;2023-07-20T08:16:22;19.50;89.20
28947;DHT22;16052;50.930;5.326;2023-07-20T08:18:48;19.60;84.30
28947;DHT22;16052;50.930;5.326;2023-07-20T08:21:14;19.50;79.00
28947;DHT22;16052;50.930;5.326;2023-07-20T08:23:40;19.50;81.30
28947;DHT22;16052;50.930;5.326;2023-07-20T08:26:05;19.50;83.10
28947;DHT22;16052;50.930;5.326;2023-07-20T08:28:31;19.60;81.00
28947;DHT22;16052;50.930;5.326;2023-07-20T08:30:57;19.60;82.80
28947;DHT22;16052;50.930;5.326;2023-07-20T08:33:23;19.70;77.50
28947;DHT22;16052;50.930;5.326;2023-07-20T08:35:49;19.60;74.50
28947;DHT22;16052;50.930;5.326;2023-07-20T08:38:15;19.60;78.40
28947;DHT22;16052;50.930;5.326;2023-07-20T08:40:46;19.70;75.50
28947;DHT22;16052;50.930;5.326;2023-07-20T08:43:12;19.70;74.80
28947;DHT22;16052;50.930;5.326;2023-07-20T08:45:40;19.80;74.80
28947;DHT22;16052;50.930;5.326;2023-07-20T08:48:07;19.80;75.00
28947;DHT22;16052;50.930;5.326;2023-07-20T08:50:40;19.80;69.50
28947;DHT22;16052;50.930;5.326;2023-07-20T08:53:07;19.80;71.40
28947;DHT22;16052;50.930;5.326;2023-07-20T08:55:34;19.80;66.40
28947;DHT22;16052;50.930;5.326;2023-07-20T08:58:00;19.70;69.60
28947;DHT22;16052;50.930;5.326;2023-07-20T09:00:27;19.90;62.60
28947;DHT22;16052;50.930;5.326;2023-07-20T09:02:55;20.10;56.70
28947;DHT22;16052;50.930;5.326;2023-07-20T09:05:22;20.10;48.00
28947;DHT22;16052;50.930;5.326;2023-07-20T09:07:49;20.10;51.80
28947;DHT22;16052;50.930;5.326;2023-07-20T09:10:14;20.10;46.60
28947;DHT22;16052;50.930;5.326;2023-07-20T09:12:43;20.00;41.60
28947;DHT22;16052;50.930;5.326;2023-07-20T09:15:11;20.10;45.40
28947;DHT22;16052;50.930;5.326;2023-07-20T09:17:37;20.10;36.80
28947;DHT22;16052;50.930;5.326;2023-07-20T09:20:08;20.00;34.60
28947;DHT22;16052;50.930;5.326;2023-07-20T09:22:38;20.10;29.80
28947;DHT22;16052;50.930;5.326;2023-07-20T09:25:15;20.30;37.60
28947;DHT22;16052;50.930;5.326;2023-07-20T09:27:42;20.30;40.60
28947;DHT22;16052;50.930;5.326;2023-07-20T09:30:09;20.50;43.40
28947;DHT22;16052;50.930;5.326;2023-07-20T09:32:45;20.40;34.40
28947;DHT22;16052;50.930;5.326;2023-07-20T09:35:15;20.60;36.00
28947;DHT22;16052;50.930;5.326;2023-07-20T09:37:54;20.60;22.80
28947;DHT22;16052;50.930;5.326;2023-07-20T09:40:20;20.60;20.00
28947;DHT22;16052;50.930;5.326;2023-07-20T09:42:47;20.60;32.80
28947;DHT22;16052;50.930;5.326;2023-07-20T09:45:13;20.60;18.90
28947;DHT22;16052;50.930;5.326;2023-07-20T09:47:40;20.50;12.00
28947;DHT22;16052;50.930;5.326;2023-07-20T09:50:07;20.50;1.00
28947;DHT22;16052;50.930;5.326;2023-07-20T09:52:40;20.60;1.00
28947;DHT22;16052;50.930;5.326;2023-07-20T09:55:07;20.70;10.40
28947;DHT22;16052;50.930;5.326;2023-07-20T09:57:34;20.70;15.60
28947;DHT22;16052;50.930;5.326;2023-07-20T10:00:00;20.80;1.00
28947;DHT22;16052;50.930;5.326;2023-07-20T10:02:32;20.90;1.00
28947;DHT22;16052;50.930;5.326;2023-07-20T10:05:01;20.80;1.00
28947;DHT22;16052;50.930;5.326;2023-07-20T10:07:28;20.90;1.00
28947;DHT22;16052;50.930;5.326;2023-07-20T10:09:55;21.00;1.00
28947;DHT22;16052;50.930;5.326;2023-07-20T10:12:22;21.30;1.00
28947;DHT22;16052;50.930;5.326;2023-07-20T10:15:13;21.30;1.00
28947;DHT22;16052;50.930;5.326;2023-07-20T10:17:48;21.40;1.00
28947;DHT22;16052;50.930;5.326;2023-07-20T10:20:19;21.60;1.00
28947;DHT22;16052;50.930;5.326;2023-07-20T10:22:47;21.80;1.00
28947;DHT22;16052;50.930;5.326;2023-07-20T10:25:16;21.80;1.00
28947;DHT22;16052;50.930;5.326;2023-07-20T10:27:43;21.70;1.00
28947;DHT22;16052;50.930;5.326;2023-07-20T10:30:09;21.70;1.00
28947;DHT22;16052;50.930;5.326;2023-07-20T10:32:35;21.60;1.00
28947;DHT22;16052;50.930;5.326;2023-07-20T10:35:01;21.60;1.00
28947;DHT22;16052;50.930;5.326;2023-07-20T10:40:31;21.70;1.00
28947;DHT22;16052;50.930;5.326;2023-07-20T10:43:01;21.60;1.00
28947;DHT22;16052;50.930;5.326;2023-07-20T10:45:48;21.70;1.00
28947;DHT22;16052;50.930;5.326;2023-07-20T10:53:32;21.90;1.00
28947;DHT22;16052;50.930;5.326;2023-07-20T10:56:27;22.00;1.00
28947;DHT22;16052;50.930;5.326;2023-07-20T10:58:58;21.80;1.00
28947;DHT22;16052;50.930;5.326;2023-07-20T11:01:28;22.00;1.00
28947;DHT22;16052;50.930;5.326;2023-07-20T11:03:58;22.10;1.00
28947;DHT22;16052;50.930;5.326;2023-07-20T11:09:13;22.50;1.00
28947;DHT22;16052;50.930;5.326;2023-07-20T11:11:48;22.40;1.00
28947;DHT22;16052;50.930;5.326;2023-07-20T11:14:24;22.40;1.00
28947;DHT22;16052;50.930;5.326;2023-07-20T11:16:51;22.60;1.00
28947;DHT22;16052;50.930;5.326;2023-07-20T11:21:46;22.90;1.00
28947;DHT22;16052;50.930;5.326;2023-07-20T11:24:13;23.00;1.00
28947;DHT22;16052;50.930;5.326;2023-07-20T11:26:53;22.90;1.00
28947;DHT22;16052;50.930;5.326;2023-07-20T11:29:23;22.80;1.00
28947;DHT22;16052;50.930;5.326;2023-07-20T11:31:49;22.80;1.00
28947;DHT22;16052;50.930;5.326;2023-07-20T11:34:16;22.90;1.00
28947;DHT22;16052;50.930;5.326;2023-07-20T11:36:45;22.80;1.00
28947;DHT22;16052;50.930;5.326;2023-07-20T11:39:13;22.90;1.00
28947;DHT22;16052;50.930;5.326;2023-07-20T11:41:44;23.10;1.00
28947;DHT22;16052;50.930;5.326;2023-07-20T11:44:10;23.00;1.00
28947;DHT22;16052;50.930;5.326;2023-07-20T11:46:41;23.00;1.00
28947;DHT22;16052;50.930;5.326;2023-07-20T11:49:10;23.00;1.00
28947;DHT22;16052;50.930;5.326;2023-07-20T11:51:37;23.00;1.00
28947;DHT22;16052;50.930;5.326;2023-07-20T11:54:05;23.00;1.00
28947;DHT22;16052;50.930;5.326;2023-07-20T11:56:31;22.90;1.00
28947;DHT22;16052;50.930;5.326;2023-07-20T11:59:00;22.90;1.00
28947;DHT22;16052;50.930;5.326;2023-07-20T12:01:29;23.00;1.00
28947;DHT22;16052;50.930;5.326;2023-07-20T12:03:58;23.20;1.00
28947;DHT22;16052;50.930;5.326;2023-07-20T12:06:25;23.20;1.00
28947;DHT22;16052;50.930;5.326;2023-07-20T12:09:02;23.30;1.00
28947;DHT22;16052;50.930;5.326;2023-07-20T12:11:38;23.50;1.00
28947;DHT22;16052;50.930;5.326;2023-07-20T12:14:07;23.70;1.00
28947;DHT22;16052;50.930;5.326;2023-07-20T12:16:35;23.60;99.90
28947;DHT22;16052;50.930;5.326;2023-07-20T12:19:11;23.50;99.90
28947;DHT22;16052;50.930;5.326;2023-07-20T12:21:40;23.30;99.90
28947;DHT22;16052;50.930;5.326;2023-07-20T12:24:07;23.20;99.90
28947;DHT22;16052;50.930;5.326;2023-07-20T12:26:34;23.10;1.00
28947;DHT22;16052;50.930;5.326;2023-07-20T12:29:01;23.30;1.00
28947;DHT22;16052;50.930;5.326;2023-07-20T12:31:27;23.60;1.00
28947;DHT22;16052;50.930;5.326;2023-07-20T12:33:54;23.90;99.90
28947;DHT22;16052;50.930;5.326;2023-07-20T12:36:23;24.00;99.90
28947;DHT22;16052;50.930;5.326;2023-07-20T12:38:49;24.10;99.90
28947;DHT22;16052;50.930;5.326;2023-07-20T12:41:15;23.80;99.90
28947;DHT22;16052;50.930;5.326;2023-07-20T12:43:42;23.80;99.90
28947;DHT22;16052;50.930;5.326;2023-07-20T12:46:08;23.90;99.90
28947;DHT22;16052;50.930;5.326;2023-07-20T12:48:37;23.90;99.90
28947;DHT22;16052;50.930;5.326;2023-07-20T12:51:03;24.00;99.90
28947;DHT22;16052;50.930;5.326;2023-07-20T12:53:30;23.90;99.90
28947;DHT22;16052;50.930;5.326;2023-07-20T12:55:58;23.80;99.90
28947;DHT22;16052;50.930;5.326;2023-07-20T12:58:23;23.80;99.90
28947;DHT22;16052;50.930;5.326;2023-07-20T13:00:49;23.70;99.90
28947;DHT22;16052;50.930;5.326;2023-07-20T13:03:15;23.60;99.90
28947;DHT22;16052;50.930;5.326;2023-07-20T13:05:42;23.60;99.90
28947;DHT22;16052;50.930;5.326;2023-07-20T13:08:13;23.60;99.90
28947;DHT22;16052;50.930;5.326;2023-07-20T13:10:39;23.80;99.90
28947;DHT22;16052;50.930;5.326;2023-07-20T13:13:05;23.90;99.90
28947;DHT22;16052;50.930;5.326;2023-07-20T13:15:32;24.00;99.90
28947;DHT22;16052;50.930;5.326;2023-07-20T13:17:59;24.10;99.90
28947;DHT22;16052;50.930;5.326;2023-07-20T13:20:26;24.00;36.00
28947;DHT22;16052;50.930;5.326;2023-07-20T13:22:51;23.80;1.00
28947;DHT22;16052;50.930;5.326;2023-07-20T13:25:17;23.60;99.90
28947;DHT22;16052;50.930;5.326;2023-07-20T13:27:47;23.40;99.90
28947;DHT22;16052;50.930;5.326;2023-07-20T13:30:13;23.30;99.90
28947;DHT22;16052;50.930;5.326;2023-07-20T13:32:43;23.30;99.90
28947;DHT22;16052;50.930;5.326;2023-07-20T13:35:09;23.30;99.90
28947;DHT22;16052;50.930;5.326;2023-07-20T13:37:35;23.30;99.90
28947;DHT22;16052;50.930;5.326;2023-07-20T13:40:01;23.60;99.90
28947;DHT22;16052;50.930;5.326;2023-07-20T13:42:27;23.80;99.90
28947;DHT22;16052;50.930;5.326;2023-07-20T13:44:52;24.10;99.90
28947;DHT22;16052;50.930;5.326;2023-07-20T13:47:18;24.30;99.90
28947;DHT22;16052;50.930;5.326;2023-07-20T13:49:44;24.40;1.00
28947;DHT22;16052;50.930;5.326;2023-07-20T13:52:09;24.60;1.00
28947;DHT22;16052;50.930;5.326;2023-07-20T13:54:35;24.90;1.00
28947;DHT22;16052;50.930;5.326;2023-07-20T13:57:01;25.00;1.00
28947;DHT22;16052;50.930;5.326;2023-07-20T13:59:26;25.30;1.00
28947;DHT22;16052;50.930;5.326;2023-07-20T14:01:52;25.40;1.00
28947;DHT22;16052;50.930;5.326;2023-07-20T14:04:18;25.70;99.90
28947;DHT22;16052;50.930;5.326;2023-07-20T14:06:44;25.80;99.90
28947;DHT22;16052;50.930;5.326;2023-07-20T14:09:09;26.00;1.00
28947;DHT22;16052;50.930;5.326;2023-07-20T14:11:35;26.00;1.00
28947;DHT22;16052;50.930;5.326;2023-07-20T14:14:01;26.10;99.90
28947;DHT22;16052;50.930;5.326;2023-07-20T14:16:26;26.10;1.90
28947;DHT22;16052;50.930;5.326;2023-07-20T14:18:52;25.90;99.90
28947;DHT22;16052;50.930;5.326;2023-07-20T14:21:20;25.50;1.00
28947;DHT22;16052;50.930;5.326;2023-07-20T14:23:50;25.40;1.00
28947;DHT22;16052;50.930;5.326;2023-07-20T14:26:16;25.40;99.90
28947;DHT22;16052;50.930;5.326;2023-07-20T14:28:42;25.70;1.00
28947;DHT22;16052;50.930;5.326;2023-07-20T14:31:08;25.80;99.90
28947;DHT22;16052;50.930;5.326;2023-07-20T14:33:33;25.90;99.90
28947;DHT22;16052;50.930;5.326;2023-07-20T14:35:59;25.90;99.90
28947;DHT22;16052;50.930;5.326;2023-07-20T14:38:28;26.00;99.90
28947;DHT22;16052;50.930;5.326;2023-07-20T14:40:54;26.10;1.00
28947;DHT22;16052;50.930;5.326;2023-07-20T14:43:20;26.00;99.90
28947;DHT22;16052;50.930;5.326;2023-07-20T14:45:48;26.00;99.90
28947;DHT22;16052;50.930;5.326;2023-07-20T14:48:14;25.90;99.90
28947;DHT22;16052;50.930;5.326;2023-07-20T14:50:40;25.70;99.90
28947;DHT22;16052;50.930;5.326;2023-07-20T14:53:05;25.70;99.90
28947;DHT22;16052;50.930;5.326;2023-07-20T14:55:32;25.70;1.00
28947;DHT22;16052;50.930;5.326;2023-07-20T14:57:57;25.50;99.90
28947;DHT22;16052;50.930;5.326;2023-07-20T15:00:23;25.20;99.90
28947;DHT22;16052;50.930;5.326;2023-07-20T15:02:49;25.10;99.90
28947;DHT22;16052;50.930;5.326;2023-07-20T15:05:22;25.10;99.90
28947;DHT22;16052;50.930;5.326;2023-07-20T15:07:48;25.20;99.90
28947;DHT22;16052;50.930;5.326;2023-07-20T15:10:15;25.20;99.90
28947;DHT22;16052;50.930;5.326;2023-07-20T15:12:41;25.30;99.90
28947;DHT22;16052;50.930;5.326;2023-07-20T15:15:12;25.30;1.00
28947;DHT22;16052;50.930;5.326;2023-07-20T15:17:39;25.10;99.90
28947;DHT22;16052;50.930;5.326;2023-07-20T15:20:07;25.00;99.90
28947;DHT22;16052;50.930;5.326;2023-07-20T15:22:34;24.90;1.00
28947;DHT22;16052;50.930;5.326;2023-07-20T15:25:02;25.00;1.00
28947;DHT22;16052;50.930;5.326;2023-07-20T15:27:29;25.00;1.00
28947;DHT22;16052;50.930;5.326;2023-07-20T15:29:55;25.10;1.00
28947;DHT22;16052;50.930;5.326;2023-07-20T15:32:20;25.10;1.00
28947;DHT22;16052;50.930;5.326;2023-07-20T15:34:46;25.10;99.90
28947;DHT22;16052;50.930;5.326;2023-07-20T15:37:12;25.00;15.80
28947;DHT22;16052;50.930;5.326;2023-07-20T15:39:38;25.00;99.90
28947;DHT22;16052;50.930;5.326;2023-07-20T15:42:04;24.90;1.00
28947;DHT22;16052;50.930;5.326;2023-07-20T15:44:31;25.10;99.90
28947;DHT22;16052;50.930;5.326;2023-07-20T15:46:56;25.10;99.90
28947;DHT22;16052;50.930;5.326;2023-07-20T15:49:22;25.00;99.90
28947;DHT22;16052;50.930;5.326;2023-07-20T15:51:50;24.90;1.00
28947;DHT22;16052;50.930;5.326;2023-07-20T15:54:16;24.90;99.90
28947;DHT22;16052;50.930;5.326;2023-07-20T15:56:42;24.80;99.90